sensor_id;sensor_type;location;lat;lon;timestamp;pressure;altitude;pressure_sealevel;temperature;humidity
76156;BME280;64906;51.290;7.348;2023-06-14T00:00:24;98514.78;;;26.22;36.23
76156;BME280;64906;51.290;7.348;2023-06-14T00:02:50;98523.53;;;26.24;36.23
76156;BME280;64906;51.290;7.348;2023-06-14T00:05:15;98521.91;;;26.23;35.52
76156;BME280;64906;51.290;7.348;2023-06-14T00:07:41;98517.53;;;26.22;35.96
76156;BME280;64906;51.290;7.348;2023-06-14T00:10:13;98526.50;;;26.19;35.89
76156;BME280;64906;51.290;7.348;2023-06-14T00:12:39;98523.63;;;26.15;36.32
76156;BME280;64906;51.290;7.348;2023-06-14T00:15:05;98526.19;;;26.20;36.13
76156;BME280;64906;51.290;7.348;2023-06-14T00:17:31;98531.56;;;26.17;36.28
76156;BME280;64906;51.290;7.348;2023-06-14T00:19:57;98529.94;;;26.16;36.25
76156;BME280;64906;51.290;7.348;2023-06-14T00:22:23;98527.16;;;26.16;35.84
76156;BME280;64906;51.290;7.348;2023-06-14T00:24:53;98532.56;;;26.12;36.14
76156;BME280;64906;51.290;7.348;2023-06-14T00:27:19;98532.25;;;26.14;35.99
76156;BME280;64906;51.290;7.348;2023-06-14T00:29:44;98535.03;;;26.14;36.29
76156;BME280;64906;51.290;7.348;2023-06-14T00:32:09;98532.56;;;26.12;36.36
76156;BME280;64906;51.290;7.348;2023-06-14T00:34:35;98536.47;;;26.11;36.42
76156;BME280;64906;51.290;7.348;2023-06-14T00:37:00;98534.19;;;26.13;36.11
76156;BME280;64906;51.290;7.348;2023-06-14T00:39:26;98538.91;;;26.13;36.37
76156;BME280;64906;51.290;7.348;2023-06-14T00:41:51;98533.91;;;26.06;36.12
76156;BME280;64906;51.290;7.348;2023-06-14T00:44:17;98535.56;;;26.07;36.45
76156;BME280;64906;51.290;7.348;2023-06-14T00:46:43;98544.16;;;26.06;36.27
76156;BME280;64906;51.290;7.348;2023-06-14T00:49:09;98547.88;;;26.10;36.40
76156;BME280;64906;51.290;7.348;2023-06-14T00:51:36;98538.78;;;26.09;36.05
76156;BME280;64906;51.290;7.348;2023-06-14T00:54:02;98543.03;;;26.07;36.29
76156;BME280;64906;51.290;7.348;2023-06-14T00:56:28;98542.56;;;26.05;36.39
76156;BME280;64906;51.290;7.348;2023-06-14T00:58:53;98551.53;;;26.02;36.39
76156;BME280;64906;51.290;7.348;2023-06-14T01:01:19;98556.72;;;26.03;36.21
76156;BME280;64906;51.290;7.348;2023-06-14T01:03:45;98561.91;;;26.05;36.26
76156;BME280;64906;51.290;7.348;2023-06-14T01:06:20;98559.31;;;26.00;36.54
76156;BME280;64906;51.290;7.348;2023-06-14T01:09:05;98561.44;;;26.03;36.34
76156;BME280;64906;51.290;7.348;2023-06-14T01:11:38;98558.66;;;26.03;36.19
76156;BME280;64906;51.290;7.348;2023-06-14T01:14:06;98561.44;;;26.03;36.29
76156;BME280;64906;51.290;7.348;2023-06-14T01:16:33;98551.00;;;26.00;36.59
76156;BME280;64906;51.290;7.348;2023-06-14T01:19:01;98551.00;;;26.00;36.66
76156;BME280;64906;51.290;7.348;2023-06-14T01:21:27;98555.59;;;25.96;36.43
76156;BME280;64906;51.290;7.348;2023-06-14T01:23:53;98553.16;;;25.94;36.46
76156;BME280;64906;51.290;7.348;2023-06-14T01:26:20;98553.16;;;25.94;36.76
76156;BME280;64906;51.290;7.348;2023-06-14T01:28:46;98550.72;;;25.93;36.68
76156;BME280;64906;51.290;7.348;2023-06-14T01:31:16;98545.06;;;25.89;36.66
76156;BME280;64906;51.290;7.348;2023-06-14T01:33:43;98543.09;;;25.90;36.71
76156;BME280;64906;51.290;7.348;2023-06-14T01:36:09;98548.13;;;25.88;36.53
76156;BME280;64906;51.290;7.348;2023-06-14T01:38:36;98544.25;;;25.89;36.34
76156;BME280;64906;51.290;7.348;2023-06-14T01:41:02;98547.00;;;25.89;36.59
76156;BME280;64906;51.290;7.348;2023-06-14T01:43:29;98545.84;;;25.90;36.52
76156;BME280;64906;51.290;7.348;2023-06-14T01:45:56;98553.03;;;25.91;36.65
76156;BME280;64906;51.290;7.348;2023-06-14T01:48:23;98542.31;;;25.89;36.71
76156;BME280;64906;51.290;7.348;2023-06-14T01:50:49;98546.53;;;25.87;36.72
76156;BME280;64906;51.290;7.348;2023-06-14T01:53:15;98549.28;;;25.87;36.52
76156;BME280;64906;51.290;7.348;2023-06-14T01:55:40;98550.13;;;25.87;36.40
76156;BME280;64906;51.290;7.348;2023-06-14T01:58:09;98538.22;;;25.87;36.88
76156;BME280;64906;51.290;7.348;2023-06-14T02:00:35;98540.19;;;25.86;36.61
76156;BME280;64906;51.290;7.348;2023-06-14T02:03:00;98539.72;;;25.84;36.84
76156;BME280;64906;51.290;7.348;2023-06-14T02:05:26;98538.75;;;25.80;36.73
76156;BME280;64906;51.290;7.348;2023-06-14T02:07:51;98546.72;;;25.82;36.81
76156;BME280;64906;51.290;7.348;2023-06-14T02:10:18;98543.28;;;25.85;36.61
76156;BME280;64906;51.290;7.348;2023-06-14T02:12:43;98550.16;;;25.79;36.93
76156;BME280;64906;51.290;7.348;2023-06-14T02:15:09;98549.81;;;25.80;36.80
76156;BME280;64906;51.290;7.348;2023-06-14T02:17:41;98547.72;;;25.77;36.67
76156;BME280;64906;51.290;7.348;2023-06-14T02:20:07;98548.06;;;25.76;36.72
76156;BME280;64906;51.290;7.348;2023-06-14T02:25:55;98542.53;;;25.76;36.67
76156;BME280;64906;51.290;7.348;2023-06-14T02:28:21;98543.66;;;25.75;36.76
76156;BME280;64906;51.290;7.348;2023-06-14T02:30:46;98552.28;;;25.73;36.90
76156;BME280;64906;51.290;7.348;2023-06-14T02:33:11;98550.81;;;25.76;36.86
76156;BME280;64906;51.290;7.348;2023-06-14T02:35:38;98546.75;;;25.73;36.82
76156;BME280;64906;51.290;7.348;2023-06-14T02:38:03;98548.25;;;25.71;36.72
76156;BME280;64906;51.290;7.348;2023-06-14T02:40:28;98550.34;;;25.74;36.89
76156;BME280;64906;51.290;7.348;2023-06-14T02:42:54;98551.81;;;25.71;36.97
76156;BME280;64906;51.290;7.348;2023-06-14T02:45:19;98553.78;;;25.71;36.98
76156;BME280;64906;51.290;7.348;2023-06-14T02:47:45;98565.66;;;25.71;36.72
76156;BME280;64906;51.290;7.348;2023-06-14T02:50:11;98560.91;;;25.72;37.16
76156;BME280;64906;51.290;7.348;2023-06-14T02:52:36;98551.34;;;25.69;36.81
76156;BME280;64906;51.290;7.348;2023-06-14T02:55:02;98554.78;;;25.66;37.21
76156;BME280;64906;51.290;7.348;2023-06-14T02:57:27;98555.91;;;25.65;36.83
76156;BME280;64906;51.290;7.348;2023-06-14T02:59:52;98563.41;;;25.65;37.02
76156;BME280;64906;51.290;7.348;2023-06-14T03:02:17;98552.00;;;25.66;37.20
76156;BME280;64906;51.290;7.348;2023-06-14T03:04:43;98560.31;;;25.66;36.95
76156;BME280;64906;51.290;7.348;2023-06-14T03:07:09;98568.44;;;25.63;36.81
76156;BME280;64906;51.290;7.348;2023-06-14T03:09:38;98567.00;;;25.57;36.88
76156;BME280;64906;51.290;7.348;2023-06-14T03:12:05;98578.53;;;25.59;37.14
76156;BME280;64906;51.290;7.348;2023-06-14T03:14:34;98586.16;;;25.62;37.14
76156;BME280;64906;51.290;7.348;2023-06-14T03:17:00;98580.31;;;25.63;37.05
76156;BME280;64906;51.290;7.348;2023-06-14T03:19:25;98573.50;;;25.61;36.89
76156;BME280;64906;51.290;7.348;2023-06-14T03:21:51;98578.19;;;25.60;36.91
76156;BME280;64906;51.290;7.348;2023-06-14T03:24:17;98580.97;;;25.60;36.88
76156;BME280;64906;51.290;7.348;2023-06-14T03:26:42;98582.44;;;25.58;37.25
76156;BME280;64906;51.290;7.348;2023-06-14T03:29:08;98581.31;;;25.59;37.41
76156;BME280;64906;51.290;7.348;2023-06-14T03:31:34;98576.94;;;25.58;37.33
76156;BME280;64906;51.290;7.348;2023-06-14T03:34:00;98583.56;;;25.57;37.18
76156;BME280;64906;51.290;7.348;2023-06-14T03:36:25;98579.19;;;25.56;37.10
76156;BME280;64906;51.290;7.348;2023-06-14T03:38:50;98582.94;;;25.60;37.08
76156;BME280;64906;51.290;7.348;2023-06-14T03:41:16;98577.59;;;25.55;37.41
76156;BME280;64906;51.290;7.348;2023-06-14T03:43:41;98575.94;;;25.54;36.95
76156;BME280;64906;51.290;7.348;2023-06-14T03:46:06;98590.09;;;25.52;37.41
76156;BME280;64906;51.290;7.348;2023-06-14T03:48:32;98598.72;;;25.51;37.44
76156;BME280;64906;51.290;7.348;2023-06-14T03:50:58;98597.28;;;25.53;37.40
76156;BME280;64906;51.290;7.348;2023-06-14T03:53:23;98599.72;;;25.55;37.29
76156;BME280;64906;51.290;7.348;2023-06-14T03:55:49;98605.91;;;25.52;37.34
76156;BME280;64906;51.290;7.348;2023-06-14T03:58:15;98612.38;;;25.56;37.13
76156;BME280;64906;51.290;7.348;2023-06-14T04:00:41;98619.72;;;25.52;37.22
76156;BME280;64906;51.290;7.348;2023-06-14T04:03:06;98620.84;;;25.51;37.34
76156;BME280;64906;51.290;7.348;2023-06-14T04:05:31;98619.22;;;25.50;37.15
76156;BME280;64906;51.290;7.348;2023-06-14T04:07:57;98626.38;;;25.51;37.25
76156;BME280;64906;51.290;7.348;2023-06-14T04:10:23;98630.28;;;25.50;37.43
76156;BME280;64906;51.290;7.348;2023-06-14T04:12:49;98634.66;;;25.51;37.11
76156;BME280;64906;51.290;7.348;2023-06-14T04:15:15;98639.25;;;25.47;37.16
76156;BME280;64906;51.290;7.348;2023-06-14T04:17:40;98642.78;;;25.47;37.50
76156;BME280;64906;51.290;7.348;2023-06-14T04:20:06;98638.59;;;25.50;37.22
76156;BME280;64906;51.290;7.348;2023-06-14T04:22:34;98639.69;;;25.49;37.51
76156;BME280;64906;51.290;7.348;2023-06-14T04:24:59;98639.69;;;25.49;37.25
76156;BME280;64906;51.290;7.348;2023-06-14T04:27:26;98650.28;;;25.47;37.44
76156;BME280;64906;51.290;7.348;2023-06-14T04:29:53;98657.94;;;25.50;37.40
76156;BME280;64906;51.290;7.348;2023-06-14T04:32:25;98648.66;;;25.46;37.15
76156;BME280;64906;51.290;7.348;2023-06-14T04:34:54;98640.38;;;25.46;37.16
76156;BME280;64906;51.290;7.348;2023-06-14T04:37:23;98647.66;;;25.50;37.58
76156;BME280;64906;51.290;7.348;2023-06-14T04:39:48;98648.16;;;25.52;37.09
76156;BME280;64906;51.290;7.348;2023-06-14T04:42:14;98647.53;;;25.47;37.44
76156;BME280;64906;51.290;7.348;2023-06-14T04:44:45;98660.69;;;25.50;37.24
76156;BME280;64906;51.290;7.348;2023-06-14T04:47:12;98662.16;;;25.47;37.17
76156;BME280;64906;51.290;7.348;2023-06-14T04:49:39;98655.16;;;25.50;37.46
76156;BME280;64906;51.290;7.348;2023-06-14T04:52:06;98658.59;;;25.47;37.28
76156;BME280;64906;51.290;7.348;2023-06-14T04:54:32;98660.19;;;25.48;37.09
76156;BME280;64906;51.290;7.348;2023-06-14T04:56:59;98657.09;;;25.49;37.33
76156;BME280;64906;51.290;7.348;2023-06-14T04:59:24;98662.97;;;25.48;37.58
76156;BME280;64906;51.290;7.348;2023-06-14T05:01:51;98665.25;;;25.46;37.39
76156;BME280;64906;51.290;7.348;2023-06-14T05:04:17;98668.16;;;25.49;37.65
76156;BME280;64906;51.290;7.348;2023-06-14T05:06:43;98666.06;;;25.46;37.27
76156;BME280;64906;51.290;7.348;2023-06-14T05:09:14;98671.25;;;25.48;37.22
76156;BME280;64906;51.290;7.348;2023-06-14T05:11:40;98669.66;;;25.47;37.45
76156;BME280;64906;51.290;7.348;2023-06-14T05:14:07;98676.28;;;25.46;37.34
76156;BME280;64906;51.290;7.348;2023-06-14T05:16:32;98675.19;;;25.47;37.42
76156;BME280;64906;51.290;7.348;2023-06-14T05:18:58;98675.19;;;25.47;37.73
76156;BME280;64906;51.290;7.348;2023-06-14T05:21:23;98671.91;;;25.45;37.42
76156;BME280;64906;51.290;7.348;2023-06-14T05:23:49;98673.38;;;25.51;37.53
76156;BME280;64906;51.290;7.348;2023-06-14T05:26:16;98671.91;;;25.45;37.48
76156;BME280;64906;51.290;7.348;2023-06-14T05:28:41;98674.03;;;25.48;37.64
76156;BME280;64906;51.290;7.348;2023-06-14T05:31:06;98669.31;;;25.48;37.56
76156;BME280;64906;51.290;7.348;2023-06-14T05:33:31;98672.41;;;25.47;37.24
76156;BME280;64906;51.290;7.348;2023-06-14T05:35:57;98669.50;;;25.43;37.57
76156;BME280;64906;51.290;7.348;2023-06-14T05:38:22;98669.66;;;25.47;37.57
76156;BME280;64906;51.290;7.348;2023-06-14T05:40:47;98671.25;;;25.48;37.48
76156;BME280;64906;51.290;7.348;2023-06-14T05:43:13;98663.28;;;25.46;37.43
76156;BME280;64906;51.290;7.348;2023-06-14T05:45:38;98674.50;;;25.50;37.48
76156;BME280;64906;51.290;7.348;2023-06-14T05:48:03;98681.66;;;25.51;37.35
76156;BME280;64906;51.290;7.348;2023-06-14T05:50:29;98679.22;;;25.49;37.17
76156;BME280;64906;51.290;7.348;2023-06-14T05:52:54;98689.94;;;25.51;37.42
76156;BME280;64906;51.290;7.348;2023-06-14T05:55:20;98690.59;;;25.56;37.13
76156;BME280;64906;51.290;7.348;2023-06-14T05:57:45;98686.34;;;25.59;37.34
76156;BME280;64906;51.290;7.348;2023-06-14T06:00:11;98688.00;;;25.60;37.36
76156;BME280;64906;51.290;7.348;2023-06-14T06:02:42;98684.91;;;25.61;37.02
76156;BME280;64906;51.290;7.348;2023-06-14T06:05:09;98690.88;;;25.63;37.43
76156;BME280;64906;51.290;7.348;2023-06-14T06:07:34;98693.34;;;25.65;37.21
76156;BME280;64906;51.290;7.348;2023-06-14T06:09:59;98686.34;;;25.67;37.27
76156;BME280;64906;51.290;7.348;2023-06-14T06:12:25;98694.13;;;25.74;37.29
76156;BME280;64906;51.290;7.348;2023-06-14T06:14:50;98684.22;;;25.73;37.16
76156;BME280;64906;51.290;7.348;2023-06-14T06:17:15;98694.63;;;25.76;37.12
76156;BME280;64906;51.290;7.348;2023-06-14T06:19:41;98693.13;;;25.78;36.86
76156;BME280;64906;51.290;7.348;2023-06-14T06:22:06;98701.75;;;25.77;36.91
76156;BME280;64906;51.290;7.348;2023-06-14T06:24:32;98702.09;;;25.75;37.10
76156;BME280;64906;51.290;7.348;2023-06-14T06:26:57;98704.84;;;25.75;37.12
76156;BME280;64906;51.290;7.348;2023-06-14T06:29:22;98708.94;;;25.78;36.93
76156;BME280;64906;51.290;7.348;2023-06-14T06:31:48;98713.16;;;25.75;36.98
76156;BME280;64906;51.290;7.348;2023-06-14T06:34:13;98714.31;;;25.74;37.25
76156;BME280;64906;51.290;7.348;2023-06-14T06:36:38;98708.44;;;25.76;37.32
76156;BME280;64906;51.290;7.348;2023-06-14T06:39:04;98705.50;;;25.81;37.05
76156;BME280;64906;51.290;7.348;2023-06-14T06:41:35;98712.97;;;25.80;37.08
76156;BME280;64906;51.290;7.348;2023-06-14T06:44:02;98718.84;;;25.79;36.97
76156;BME280;64906;51.290;7.348;2023-06-14T06:46:27;98711.03;;;25.81;37.17
76156;BME280;64906;51.290;7.348;2023-06-14T06:48:53;98721.75;;;25.82;36.80
76156;BME280;64906;51.290;7.348;2023-06-14T06:51:19;98720.94;;;25.90;36.94
76156;BME280;64906;51.290;7.348;2023-06-14T06:53:52;98725.47;;;25.95;36.80
76156;BME280;64906;51.290;7.348;2023-06-14T06:56:18;98731.16;;;25.98;37.01
76156;BME280;64906;51.290;7.348;2023-06-14T06:58:43;98730.50;;;26.01;36.90
76156;BME280;64906;51.290;7.348;2023-06-14T07:01:08;98733.78;;;26.03;36.65
76156;BME280;64906;51.290;7.348;2023-06-14T07:03:34;98738.47;;;26.03;36.83
76156;BME280;64906;51.290;7.348;2023-06-14T07:06:00;98735.84;;;25.98;36.81
76156;BME280;64906;51.290;7.348;2023-06-14T07:08:26;98734.94;;;26.02;36.55
76156;BME280;64906;51.290;7.348;2023-06-14T07:10:52;98736.88;;;26.02;36.58
76156;BME280;64906;51.290;7.348;2023-06-14T07:13:17;98730.19;;;26.03;36.63
76156;BME280;64906;51.290;7.348;2023-06-14T07:15:43;98730.19;;;26.03;37.03
76156;BME280;64906;51.290;7.348;2023-06-14T07:18:08;98725.97;;;26.05;36.90
76156;BME280;64906;51.290;7.348;2023-06-14T07:20:34;98730.34;;;26.06;36.81
76156;BME280;64906;51.290;7.348;2023-06-14T07:22:59;98735.06;;;26.06;36.71
76156;BME280;64906;51.290;7.348;2023-06-14T07:25:25;98731.66;;;26.09;36.79
76156;BME280;64906;51.290;7.348;2023-06-14T07:27:51;98732.09;;;26.11;36.50
76156;BME280;64906;51.290;7.348;2023-06-14T07:30:16;98728.56;;;26.10;37.02
76156;BME280;64906;51.290;7.348;2023-06-14T07:32:42;98730.31;;;26.15;36.56
76156;BME280;64906;51.290;7.348;2023-06-14T07:35:07;98727.22;;;26.16;34.91
76156;BME280;64906;51.290;7.348;2023-06-14T07:37:33;98724.63;;;26.11;34.10
76156;BME280;64906;51.290;7.348;2023-06-14T07:39:58;98736.22;;;26.05;34.64
76156;BME280;64906;51.290;7.348;2023-06-14T07:42:23;98726.91;;;26.09;34.88
76156;BME280;64906;51.290;7.348;2023-06-14T07:44:49;98735.69;;;26.11;34.74
76156;BME280;64906;51.290;7.348;2023-06-14T07:47:16;98721.38;;;26.09;35.03
76156;BME280;64906;51.290;7.348;2023-06-14T07:49:41;98733.94;;;26.07;35.09
76156;BME280;64906;51.290;7.348;2023-06-14T07:52:06;98725.13;;;26.05;34.71
76156;BME280;64906;51.290;7.348;2023-06-14T07:54:32;98735.53;;;26.08;34.40
76156;BME280;64906;51.290;7.348;2023-06-14T07:56:58;98733.94;;;26.07;34.87
76156;BME280;64906;51.290;7.348;2023-06-14T07:59:25;98734.59;;;26.04;34.58
76156;BME280;64906;51.290;7.348;2023-06-14T08:01:51;98743.03;;;25.99;34.94
76156;BME280;64906;51.290;7.348;2023-06-14T08:04:16;98736.19;;;25.96;34.96
76156;BME280;64906;51.290;7.348;2023-06-14T08:06:42;98737.19;;;25.92;35.05
76156;BME280;64906;51.290;7.348;2023-06-14T08:09:11;98744.00;;;25.94;35.05
76156;BME280;64906;51.290;7.348;2023-06-14T08:11:37;98746.47;;;25.96;35.28
76156;BME280;64906;51.290;7.348;2023-06-14T08:14:03;98741.41;;;25.98;35.07
76156;BME280;64906;51.290;7.348;2023-06-14T08:16:28;98743.38;;;25.97;35.53
76156;BME280;64906;51.290;7.348;2023-06-14T08:18:55;98746.28;;;26.01;35.13
76156;BME280;64906;51.290;7.348;2023-06-14T08:21:20;98744.16;;;25.98;35.45
76156;BME280;64906;51.290;7.348;2023-06-14T08:23:46;98743.38;;;25.97;35.55
76156;BME280;64906;51.290;7.348;2023-06-14T08:26:11;98742.53;;;25.97;35.44
76156;BME280;64906;51.290;7.348;2023-06-14T08:28:36;98736.69;;;25.98;35.75
76156;BME280;64906;51.290;7.348;2023-06-14T08:31:02;98740.94;;;25.96;35.61
76156;BME280;64906;51.290;7.348;2023-06-14T08:33:27;98742.38;;;25.93;35.45
76156;BME280;64906;51.290;7.348;2023-06-14T08:35:53;98737.34;;;25.95;35.63
76156;BME280;64906;51.290;7.348;2023-06-14T08:38:18;98743.69;;;25.96;35.42
76156;BME280;64906;51.290;7.348;2023-06-14T08:40:45;98745.31;;;25.97;35.27
76156;BME280;64906;51.290;7.348;2023-06-14T08:43:12;98738.69;;;25.89;35.83
76156;BME280;64906;51.290;7.348;2023-06-14T08:45:38;98754.59;;;25.92;35.73
76156;BME280;64906;51.290;7.348;2023-06-14T08:48:04;98745.50;;;25.92;35.86
76156;BME280;64906;51.290;7.348;2023-06-14T08:50:32;98751.34;;;25.99;35.58
76156;BME280;64906;51.290;7.348;2023-06-14T08:53:00;98757.19;;;25.97;35.74
76156;BME280;64906;51.290;7.348;2023-06-14T08:55:29;98747.91;;;25.93;35.59
76156;BME280;64906;51.290;7.348;2023-06-14T08:57:56;98743.53;;;25.92;35.89
76156;BME280;64906;51.290;7.348;2023-06-14T09:00:24;98748.06;;;25.97;35.47
76156;BME280;64906;51.290;7.348;2023-06-14T09:02:50;98753.13;;;26.03;35.69
76156;BME280;64906;51.290;7.348;2023-06-14T09:05:20;98749.72;;;26.06;35.61
76156;BME280;64906;51.290;7.348;2023-06-14T09:07:46;98741.88;;;26.00;35.33
76156;BME280;64906;51.290;7.348;2023-06-14T09:10:15;98757.53;;;25.96;35.47
76156;BME280;64906;51.290;7.348;2023-06-14T09:12:40;98746.59;;;25.99;35.41
76156;BME280;64906;51.290;7.348;2023-06-14T09:15:07;98748.91;;;25.97;35.40
76156;BME280;64906;51.290;7.348;2023-06-14T09:17:35;98757.03;;;25.94;35.60
76156;BME280;64906;51.290;7.348;2023-06-14T09:20:07;98746.13;;;25.97;35.52
76156;BME280;64906;51.290;7.348;2023-06-14T09:22:39;98744.16;;;25.98;35.55
76156;BME280;64906;51.290;7.348;2023-06-14T09:25:05;98749.69;;;25.98;35.54
76156;BME280;64906;51.290;7.348;2023-06-14T09:27:32;98750.19;;;26.00;35.48
76156;BME280;64906;51.290;7.348;2023-06-14T09:29:57;98751.50;;;25.94;35.66
76156;BME280;64906;51.290;7.348;2023-06-14T09:32:23;98748.06;;;25.97;35.89
76156;BME280;64906;51.290;7.348;2023-06-14T09:34:48;98752.47;;;25.98;35.57
76156;BME280;64906;51.290;7.348;2023-06-14T09:37:30;98752.94;;;26.00;35.44
76156;BME280;64906;51.290;7.348;2023-06-14T09:39:57;98759.63;;;25.99;35.49
76156;BME280;64906;51.290;7.348;2023-06-14T09:42:22;98761.25;;;26.00;35.60
76156;BME280;64906;51.290;7.348;2023-06-14T09:44:52;98753.28;;;25.98;35.47
76156;BME280;64906;51.290;7.348;2023-06-14T09:47:18;98760.13;;;26.01;35.19
76156;BME280;64906;51.290;7.348;2023-06-14T09:49:43;98761.09;;;25.96;35.62
76156;BME280;64906;51.290;7.348;2023-06-14T09:52:12;98760.31;;;25.96;35.55
76156;BME280;64906;51.290;7.348;2023-06-14T09:54:41;98756.38;;;25.97;35.61
76156;BME280;64906;51.290;7.348;2023-06-14T09:57:13;98751.66;;;25.97;35.13
76156;BME280;64906;51.290;7.348;2023-06-14T09:59:42;98772.31;;;26.00;35.62
76156;BME280;64906;51.290;7.348;2023-06-14T10:02:18;98759.00;;;26.02;35.33
76156;BME280;64906;51.290;7.348;2023-06-14T10:04:46;98755.72;;;26.00;35.39
76156;BME280;64906;51.290;7.348;2023-06-14T10:07:19;98762.88;;;26.01;35.29
76156;BME280;64906;51.290;7.348;2023-06-14T10:09:46;98761.09;;;25.96;35.38
76156;BME280;64906;51.290;7.348;2023-06-14T10:12:16;98759.63;;;25.99;35.35
76156;BME280;64906;51.290;7.348;2023-06-14T10:14:48;98760.13;;;26.01;35.35
76156;BME280;64906;51.290;7.348;2023-06-14T10:17:22;98756.53;;;26.00;35.34
76156;BME280;64906;51.290;7.348;2023-06-14T10:20:07;98750.53;;;26.07;35.30
76156;BME280;64906;51.290;7.348;2023-06-14T10:22:42;98755.56;;;26.05;35.22
76156;BME280;64906;51.290;7.348;2023-06-14T10:25:12;98755.91;;;26.03;35.04
76156;BME280;64906;51.290;7.348;2023-06-14T10:27:38;98759.63;;;25.99;35.10
76156;BME280;64906;51.290;7.348;2023-06-14T10:30:05;98757.66;;;25.99;35.27
76156;BME280;64906;51.290;7.348;2023-06-14T10:33:08;98766.97;;;26.03;34.74
76156;BME280;64906;51.290;7.348;2023-06-14T10:35:35;98744.84;;;26.03;35.02
76156;BME280;64906;51.290;7.348;2023-06-14T10:38:11;98753.78;;;26.09;34.71
76156;BME280;64906;51.290;7.348;2023-06-14T10:40:38;98742.22;;;26.07;35.22
76156;BME280;64906;51.290;7.348;2023-06-14T10:43:22;98753.91;;;26.12;35.39
76156;BME280;64906;51.290;7.348;2023-06-14T10:48:41;98746.25;;;26.18;35.02
76156;BME280;64906;51.290;7.348;2023-06-14T10:51:20;98745.47;;;26.09;35.01
76156;BME280;64906;51.290;7.348;2023-06-14T10:53:47;98746.59;;;26.16;35.69
76156;BME280;64906;51.290;7.348;2023-06-14T10:56:24;98745.31;;;26.14;35.14
76156;BME280;64906;51.290;7.348;2023-06-14T10:58:51;98743.69;;;26.04;35.30
76156;BME280;64906;51.290;7.348;2023-06-14T11:01:26;98738.78;;;26.10;35.00
76156;BME280;64906;51.290;7.348;2023-06-14T11:03:54;98744.31;;;26.10;35.04
76156;BME280;64906;51.290;7.348;2023-06-14T11:06:22;98748.53;;;26.16;35.28
76156;BME280;64906;51.290;7.348;2023-06-14T11:09:06;98745.31;;;26.14;35.27
76156;BME280;64906;51.290;7.348;2023-06-14T11:11:37;98741.75;;;26.05;35.41
76156;BME280;64906;51.290;7.348;2023-06-14T11:14:04;98748.09;;;26.05;35.22
76156;BME280;64906;51.290;7.348;2023-06-14T11:16:30;98752.44;;;26.15;35.03
76156;BME280;64906;51.290;7.348;2023-06-14T11:18:57;98751.47;;;26.11;34.74
76156;BME280;64906;51.290;7.348;2023-06-14T11:21:24;98748.38;;;26.12;34.92
76156;BME280;64906;51.290;7.348;2023-06-14T11:23:51;98741.53;;;26.18;34.96
76156;BME280;64906;51.290;7.348;2023-06-14T11:26:24;98750.97;;;26.17;34.84
76156;BME280;64906;51.290;7.348;2023-06-14T11:28:55;98742.06;;;26.12;35.15
76156;BME280;64906;51.290;7.348;2023-06-14T11:31:21;98742.72;;;26.09;35.20
76156;BME280;64906;51.290;7.348;2023-06-14T11:33:49;98744.00;;;26.11;34.83
76156;BME280;64906;51.290;7.348;2023-06-14T11:36:15;98744.00;;;26.11;34.63
76156;BME280;64906;51.290;7.348;2023-06-14T11:38:41;98749.84;;;26.10;35.05
76156;BME280;64906;51.290;7.348;2023-06-14T11:41:06;98744.47;;;26.13;34.48
76156;BME280;64906;51.290;7.348;2023-06-14T11:43:31;98731.16;;;26.07;35.36
76156;BME280;64906;51.290;7.348;2023-06-14T11:45:59;98730.34;;;26.06;34.88
76156;BME280;64906;51.290;7.348;2023-06-14T11:48:39;98733.09;;;26.06;35.05
76156;BME280;64906;51.290;7.348;2023-06-14T11:51:04;98737.34;;;26.04;34.58
76156;BME280;64906;51.290;7.348;2023-06-14T11:53:30;98739.31;;;26.03;33.72
76156;BME280;64906;51.290;7.348;2023-06-14T11:55:56;98745.97;;;25.94;33.47
76156;BME280;64906;51.290;7.348;2023-06-14T11:58:22;98738.28;;;25.99;33.51
76156;BME280;64906;51.290;7.348;2023-06-14T12:00:50;98738.47;;;26.03;33.47
76156;BME280;64906;51.290;7.348;2023-06-14T12:03:16;98748.09;;;26.05;33.72
76156;BME280;64906;51.290;7.348;2023-06-14T12:05:42;98742.72;;;26.09;33.73
76156;BME280;64906;51.290;7.348;2023-06-14T12:08:08;98737.63;;;26.11;33.82
76156;BME280;64906;51.290;7.348;2023-06-14T12:10:41;98730.00;;;26.08;33.85
76156;BME280;64906;51.290;7.348;2023-06-14T12:13:10;98733.75;;;26.12;34.11
76156;BME280;64906;51.290;7.348;2023-06-14T12:15:36;98738.47;;;26.11;33.76
76156;BME280;64906;51.290;7.348;2023-06-14T12:18:05;98740.75;;;26.09;34.28
76156;BME280;64906;51.290;7.348;2023-06-14T12:20:32;98739.28;;;26.12;34.05
76156;BME280;64906;51.290;7.348;2023-06-14T12:23:02;98738.28;;;26.16;34.07
76156;BME280;64906;51.290;7.348;2023-06-14T12:25:32;98745.75;;;26.16;34.16
76156;BME280;64906;51.290;7.348;2023-06-14T12:28:04;98746.59;;;26.16;34.12
76156;BME280;64906;51.290;7.348;2023-06-14T12:30:30;98736.00;;;26.18;33.84
76156;BME280;64906;51.290;7.348;2023-06-14T12:32:55;98730.81;;;26.17;34.09
76156;BME280;64906;51.290;7.348;2023-06-14T12:35:21;98736.78;;;26.19;34.08
76156;BME280;64906;51.290;7.348;2023-06-14T12:37:46;98737.13;;;26.17;34.26
76156;BME280;64906;51.290;7.348;2023-06-14T12:40:13;98729.31;;;26.19;34.37
76156;BME280;64906;51.290;7.348;2023-06-14T12:42:38;98723.16;;;26.14;34.32
76156;BME280;64906;51.290;7.348;2023-06-14T12:45:04;98727.97;;;26.25;34.41
76156;BME280;64906;51.290;7.348;2023-06-14T12:47:29;98733.22;;;26.27;33.95
76156;BME280;64906;51.290;7.348;2023-06-14T12:49:55;98735.97;;;26.27;34.27
76156;BME280;64906;51.290;7.348;2023-06-14T12:52:20;98727.69;;;26.27;34.19
76156;BME280;64906;51.290;7.348;2023-06-14T12:54:46;98729.13;;;26.24;34.54
76156;BME280;64906;51.290;7.348;2023-06-14T12:57:11;98742.63;;;26.26;33.97
76156;BME280;64906;51.290;7.348;2023-06-14T12:59:36;98731.91;;;26.24;34.35
76156;BME280;64906;51.290;7.348;2023-06-14T13:02:16;98737.59;;;26.28;34.27
76156;BME280;64906;51.290;7.348;2023-06-14T13:04:42;98724.09;;;26.26;33.81